createdAt,value
2019-06-07T00:01:13.788Z,4.13
2019-06-07T00:04:03.671Z,4.50
2019-06-07T00:06:53.452Z,4.00
2019-06-07T00:09:43.117Z,5.10
2019-06-07T00:12:33.189Z,4.47
2019-06-07T00:15:28.610Z,2.90
2019-06-07T00:18:20.046Z,2.80
2019-06-07T00:21:08.946Z,3.10
2019-06-07T00:23:57.691Z,3.37
2019-06-07T00:26:58.323Z,2.83
2019-06-07T00:29:38.787Z,2.60
2019-06-07T00:32:29.204Z,3.00
2019-06-07T00:35:22.343Z,3.70
2019-06-07T00:38:11.901Z,3.47
2019-06-07T00:41:02.097Z,3.73
2019-06-07T00:43:51.756Z,3.97
2019-06-07T00:46:41.680Z,3.87
2019-06-07T00:49:40.506Z,2.73
2019-06-07T00:53:12.838Z,2.83
2019-06-07T00:55:18.127Z,2.53
2019-06-07T00:58:08.843Z,1.93
2019-06-07T01:00:58.807Z,1.77
2019-06-07T01:03:49.267Z,2.30
2019-06-07T01:06:39.274Z,1.73
2019-06-07T01:09:29.678Z,2.30
2019-06-07T01:12:21.515Z,1.93
2019-06-07T01:15:15.757Z,1.90
2019-06-07T01:20:55.187Z,1.47
2019-06-07T01:24:08.057Z,2.23
2019-06-07T01:26:35.952Z,1.60
2019-06-07T01:29:29.478Z,1.40
2019-06-07T01:32:18.803Z,1.70
2019-06-07T01:35:09.946Z,1.50
2019-06-07T01:38:00.114Z,1.80
2019-06-07T01:40:50.037Z,1.80
2019-06-07T01:43:40.163Z,1.80
2019-06-07T01:46:30.077Z,1.67
2019-06-07T01:49:22.155Z,1.13
2019-06-07T01:52:12.047Z,1.87
2019-06-07T01:55:01.957Z,1.47
2019-06-07T01:57:59.015Z,1.40
2019-06-07T02:00:48.210Z,1.30
2019-06-07T02:03:38.319Z,1.93
2019-06-07T02:06:32.044Z,1.73
2019-06-07T02:09:20.849Z,2.20
2019-06-07T02:12:25.689Z,1.80
2019-06-07T02:15:03.492Z,1.47
2019-06-07T02:17:54.481Z,1.67
2019-06-07T02:20:43.727Z,1.73
2019-06-07T02:23:34.932Z,1.13
2019-06-07T02:26:25.529Z,1.80
2019-06-07T02:29:16.562Z,2.00
2019-06-07T02:32:05.939Z,1.63
2019-06-07T02:34:55.845Z,2.20
2019-06-07T02:37:47.292Z,1.70
2019-06-07T02:40:37.949Z,1.70
2019-06-07T02:43:32.481Z,2.00
2019-06-07T02:46:35.225Z,1.97
2019-06-07T02:49:17.534Z,2.10
2019-06-07T02:52:07.883Z,1.80
2019-06-07T02:54:58.143Z,2.03
2019-06-07T02:57:47.699Z,2.07
2019-06-07T03:01:06.855Z,2.27
2019-06-07T03:03:40.378Z,1.80
2019-06-07T03:06:34.237Z,2.27
2019-06-07T03:09:23.529Z,2.00
2019-06-07T03:12:14.609Z,2.33
2019-06-07T03:15:05.241Z,1.80
2019-06-07T03:18:04.884Z,1.87
2019-06-07T03:21:04.968Z,2.40
2019-06-07T03:23:48.981Z,2.07
2019-06-07T03:27:30.568Z,2.20
2019-06-07T03:29:32.265Z,1.80
2019-06-07T03:32:23.120Z,2.33
2019-06-07T03:35:13.105Z,1.87
2019-06-07T03:38:03.995Z,1.90
2019-06-07T03:40:53.663Z,2.47
2019-06-07T03:43:44.310Z,2.10
2019-06-07T03:46:35.171Z,2.00
2019-06-07T03:49:27.809Z,1.97
2019-06-07T03:52:16.720Z,2.27
2019-06-07T03:55:07.602Z,1.97
2019-06-07T03:58:31.030Z,2.27
2019-06-07T04:00:50.734Z,1.90
2019-06-07T04:03:50.711Z,2.20
2019-06-07T04:06:36.168Z,1.80
2019-06-07T04:09:26.086Z,2.13
2019-06-07T04:12:16.414Z,2.00
2019-06-07T04:15:08.664Z,2.23
2019-06-07T04:18:02.253Z,1.60
2019-06-07T04:20:49.759Z,1.83
2019-06-07T04:23:45.260Z,1.97
2019-06-07T04:26:34.427Z,2.07
2019-06-07T04:29:34.091Z,1.87
2019-06-07T04:32:14.585Z,1.60
2019-06-07T04:35:04.739Z,2.20
2019-06-07T04:37:54.368Z,1.80
2019-06-07T04:40:44.880Z,1.77
2019-06-07T04:43:38.155Z,2.03
2019-06-07T04:46:31.588Z,1.63
2019-06-07T04:49:23.606Z,1.80
2019-06-07T04:52:15.139Z,2.10
2019-06-07T04:55:05.480Z,2.17
2019-06-07T04:57:55.615Z,2.00
2019-06-07T05:00:53.191Z,1.57
2019-06-07T05:03:40.865Z,1.30
2019-06-07T05:06:30.084Z,2.17
2019-06-07T05:09:21.677Z,1.63
2019-06-07T05:12:11.600Z,1.87
2019-06-07T05:15:01.199Z,1.57
2019-06-07T05:17:51.440Z,1.70
2019-06-07T05:20:44.457Z,1.97
2019-06-07T05:26:25.365Z,1.90
2019-06-07T05:29:15.305Z,1.90
2019-06-07T05:32:05.200Z,1.97
2019-06-07T05:34:55.440Z,1.83
2019-06-07T05:37:46.008Z,1.83
2019-06-07T05:40:42.460Z,1.50
2019-06-07T05:43:35.022Z,1.70
2019-06-07T05:46:22.276Z,1.70
2019-06-07T05:49:11.892Z,1.60
2019-06-07T05:52:01.787Z,2.03
2019-06-07T05:54:52.564Z,1.40
2019-06-07T05:57:48.603Z,1.93
2019-06-07T06:00:36.860Z,2.23
2019-06-07T06:03:27.460Z,1.90
2019-06-07T06:06:18.489Z,2.10
2019-06-07T06:09:13.715Z,2.10
2019-06-07T06:12:02.513Z,1.33
2019-06-07T06:14:52.710Z,1.97
2019-06-07T06:17:46.080Z,1.90
2019-06-07T06:20:54.472Z,1.53
2019-06-07T06:23:25.839Z,1.83
2019-06-07T06:26:16.099Z,1.90
2019-06-07T06:29:06.670Z,1.60
2019-06-07T06:34:54.041Z,2.20
2019-06-07T06:37:47.168Z,2.70
2019-06-07T06:40:34.160Z,2.23
2019-06-07T06:43:23.985Z,2.20
2019-06-07T06:46:14.364Z,2.40
2019-06-07T06:49:04.520Z,2.33
2019-06-07T06:51:55.429Z,2.80
2019-06-07T06:54:53.819Z,2.50
2019-06-07T06:57:37.359Z,2.30
2019-06-07T07:00:53.616Z,2.97
2019-06-07T07:03:57.505Z,2.50
2019-06-07T07:06:29.338Z,2.20
2019-06-07T07:09:19.259Z,2.50
2019-06-07T07:12:12.508Z,3.17
2019-06-07T07:15:00.894Z,2.52
2019-06-07T07:18:03.742Z,3.17
2019-06-07T07:20:45.029Z,2.63
2019-06-07T07:23:34.798Z,2.55
2019-06-07T07:26:26.370Z,2.52
2019-06-07T07:29:16.878Z,2.35
2019-06-07T07:32:06.252Z,2.77
2019-06-07T07:35:00.454Z,1.95
2019-06-07T07:37:53.570Z,2.20
2019-06-07T07:43:30.820Z,2.27
2019-06-07T07:46:29.128Z,2.60
2019-06-07T07:49:12.801Z,2.62
2019-06-07T07:52:02.398Z,3.15
2019-06-07T07:54:56.068Z,2.17
2019-06-07T07:57:46.599Z,2.85
2019-06-07T08:00:52.060Z,2.77
2019-06-07T08:03:30.044Z,2.77
2019-06-07T08:06:20.239Z,2.52
2019-06-07T08:09:10.351Z,2.25
2019-06-07T08:12:02.246Z,2.30
2019-06-07T08:14:58.532Z,2.40
2019-06-07T08:17:47.066Z,2.62
2019-06-07T08:20:37.840Z,2.27
2019-06-07T08:23:27.760Z,2.20
2019-06-07T08:26:18.394Z,2.40
2019-06-07T08:29:08.376Z,2.80
2019-06-07T08:32:00.901Z,2.67
2019-06-07T08:34:54.916Z,2.65
2019-06-07T08:38:15.181Z,2.65
2019-06-07T08:40:33.398Z,2.90
2019-06-07T08:43:22.966Z,2.60
2019-06-07T08:46:13.033Z,2.67
2019-06-07T08:49:04.782Z,2.75
2019-06-07T08:52:04.562Z,2.45
2019-06-07T08:54:46.320Z,2.50
2019-06-07T08:57:36.457Z,2.87
2019-06-07T09:00:47.066Z,2.27
2019-06-07T09:03:20.116Z,2.58
2019-06-07T09:06:53.871Z,2.52
2019-06-07T09:09:05.232Z,2.60
2019-06-07T09:11:56.501Z,2.70
2019-06-07T09:14:59.595Z,3.05
2019-06-07T09:18:29.745Z,2.15
2019-06-07T09:20:43.600Z,2.80
2019-06-07T09:23:33.846Z,2.92
2019-06-07T09:26:24.541Z,2.05
2019-06-07T09:29:14.675Z,2.33
2019-06-07T09:32:11.113Z,2.83
2019-06-07T09:35:00.110Z,2.20
2019-06-07T09:38:07.804Z,2.33
2019-06-07T09:40:39.189Z,2.10
2019-06-07T09:44:00.700Z,2.70
2019-06-07T09:46:20.344Z,2.52
2019-06-07T09:49:22.976Z,2.05
2019-06-07T09:52:03.617Z,1.70
2019-06-07T09:57:45.784Z,2.12
2019-06-07T10:00:40.769Z,2.50
2019-06-07T10:03:26.806Z,2.15
2019-06-07T10:06:17.205Z,2.10
2019-06-07T10:12:02.242Z,2.37
2019-06-07T10:14:52.421Z,2.60
2019-06-07T10:17:42.576Z,2.42
2019-06-07T10:20:32.485Z,2.80
2019-06-07T10:23:22.523Z,2.47
2019-06-07T10:26:12.982Z,2.30
2019-06-07T10:29:05.583Z,2.12
2019-06-07T10:31:55.324Z,2.20
2019-06-07T10:34:45.527Z,2.02
2019-06-07T10:37:34.941Z,1.70
2019-06-07T10:40:24.853Z,1.62
2019-06-07T10:43:14.711Z,2.67
2019-06-07T10:46:05.860Z,1.62
2019-06-07T10:48:56.088Z,1.98
2019-06-07T10:51:46.548Z,2.27
2019-06-07T10:54:36.058Z,2.00
2019-06-07T10:57:26.843Z,1.90
2019-06-07T11:00:18.085Z,1.67
2019-06-07T11:03:09.792Z,2.10
2019-06-07T11:06:00.486Z,2.05
2019-06-07T11:08:51.547Z,1.82
2019-06-07T11:11:41.220Z,2.27
2019-06-07T11:14:31.773Z,2.42
2019-06-07T11:17:21.361Z,2.83
2019-06-07T11:20:12.580Z,2.20
2019-06-07T11:23:03.189Z,2.87
2019-06-07T11:25:53.788Z,2.17
2019-06-07T11:28:44.380Z,2.47
2019-06-07T11:31:34.480Z,1.98
2019-06-07T11:34:25.213Z,1.85
2019-06-07T11:37:17.199Z,1.57
2019-06-07T11:40:23.012Z,2.02
2019-06-07T11:42:58.227Z,2.17
2019-06-07T11:45:48.320Z,1.90
2019-06-07T11:48:37.951Z,1.80
2019-06-07T11:51:28.104Z,2.08
2019-06-07T11:54:20.412Z,1.95
2019-06-07T11:57:10.909Z,1.98
2019-06-07T12:00:00.501Z,1.82
2019-06-07T12:02:51.127Z,1.77
2019-06-07T12:05:41.925Z,1.20
2019-06-07T12:08:32.224Z,1.60
2019-06-07T12:11:22.325Z,1.82
2019-06-07T12:14:12.869Z,1.52
2019-06-07T12:17:02.364Z,1.70
2019-06-07T12:19:53.040Z,1.40
2019-06-07T12:22:43.632Z,1.40
2019-06-07T12:25:33.633Z,1.52
2019-06-07T12:28:23.301Z,1.50
2019-06-07T12:31:15.025Z,1.30
2019-06-07T12:34:06.480Z,1.47
2019-06-07T12:36:56.532Z,1.57
2019-06-07T12:39:47.315Z,1.80
2019-06-07T12:42:37.366Z,1.35
2019-06-07T12:45:43.580Z,1.70
2019-06-07T12:48:21.264Z,2.05
2019-06-07T12:51:10.261Z,1.22
2019-06-07T12:54:01.079Z,1.60
2019-06-07T12:56:52.393Z,1.70
2019-06-07T12:59:42.951Z,1.37
2019-06-07T13:02:33.840Z,1.98
2019-06-07T13:05:23.963Z,1.90
2019-06-07T13:08:15.599Z,2.22
2019-06-07T13:11:16.176Z,1.90
2019-06-07T13:13:57.494Z,2.27
2019-06-07T13:16:46.909Z,1.95
2019-06-07T13:19:37.463Z,2.00
2019-06-07T13:22:28.969Z,1.80
2019-06-07T13:25:21.177Z,1.80
2019-06-07T13:28:11.607Z,1.82
2019-06-07T13:31:00.874Z,1.75
2019-06-07T13:33:50.907Z,1.60
2019-06-07T13:36:41.384Z,1.37
2019-06-07T13:39:31.625Z,1.25
2019-06-07T13:42:22.857Z,1.17
2019-06-07T13:45:14.212Z,1.37
2019-06-07T13:48:04.321Z,1.05
2019-06-07T13:50:54.300Z,1.67
2019-06-07T13:53:44.749Z,1.12
2019-06-07T13:56:34.705Z,1.20
2019-06-07T13:59:24.542Z,1.20
2019-06-07T14:02:14.585Z,1.57
2019-06-07T14:05:04.268Z,1.22
2019-06-07T14:07:54.000Z,1.30
2019-06-07T14:10:44.255Z,1.47
2019-06-07T14:13:34.311Z,1.50
2019-06-07T14:16:26.274Z,1.27
2019-06-07T14:19:16.879Z,1.10
2019-06-07T14:22:07.773Z,1.37
2019-06-07T14:24:58.965Z,1.20
2019-06-07T14:27:49.201Z,1.80
2019-06-07T14:30:40.087Z,1.35
2019-06-07T14:33:30.787Z,1.70
2019-06-07T14:36:22.615Z,1.25
2019-06-07T14:39:13.117Z,1.60
2019-06-07T14:42:09.034Z,1.57
2019-06-07T14:44:54.704Z,1.60
2019-06-07T14:47:44.815Z,1.77
2019-06-07T14:50:35.372Z,1.35
2019-06-07T14:53:26.620Z,1.17
2019-06-07T14:56:17.780Z,1.57
2019-06-07T14:59:08.241Z,1.77
2019-06-07T15:01:58.847Z,1.50
2019-06-07T15:04:49.705Z,1.60
2019-06-07T15:07:40.467Z,1.30
2019-06-07T15:10:32.307Z,1.40
2019-06-07T15:13:23.081Z,1.50
2019-06-07T15:16:13.519Z,1.25
2019-06-07T15:19:03.861Z,1.30
2019-06-07T15:21:53.360Z,1.27
2019-06-07T15:24:43.303Z,1.30
2019-06-07T15:27:33.526Z,1.70
2019-06-07T15:30:24.080Z,2.10
2019-06-07T15:33:14.438Z,1.10
2019-06-07T15:36:05.465Z,1.60
2019-06-07T15:38:55.846Z,1.72
2019-06-07T15:41:45.689Z,2.00
2019-06-07T15:44:35.638Z,1.57
2019-06-07T15:47:25.815Z,1.30
2019-06-07T15:50:16.289Z,1.50
2019-06-07T15:53:06.645Z,1.37
2019-06-07T15:55:57.196Z,1.52
2019-06-07T15:58:47.600Z,2.02
2019-06-07T16:01:39.520Z,1.87
2019-06-07T16:04:29.451Z,1.55
2019-06-07T16:07:20.237Z,1.90
2019-06-07T16:10:11.777Z,1.52
2019-06-07T16:13:03.708Z,1.67
2019-06-07T16:15:53.152Z,2.08
2019-06-07T16:18:44.174Z,2.30
2019-06-07T16:21:35.285Z,2.30
2019-06-07T16:24:25.680Z,1.72
2019-06-07T16:27:15.928Z,2.00
2019-06-07T16:30:09.244Z,1.70
2019-06-07T16:32:58.454Z,1.75
2019-06-07T16:35:48.035Z,2.75
2019-06-07T16:38:38.064Z,1.77
2019-06-07T16:41:28.029Z,1.60
2019-06-07T16:44:18.105Z,2.00
2019-06-07T16:47:08.242Z,2.00
2019-06-07T16:49:58.820Z,2.17
2019-06-07T16:52:48.813Z,2.37
2019-06-07T16:55:39.060Z,1.65
2019-06-07T16:58:28.650Z,2.20
2019-06-07T17:01:19.561Z,1.77
2019-06-07T17:04:09.541Z,2.30
2019-06-07T17:06:59.489Z,2.22
2019-06-07T17:09:50.800Z,2.17
2019-06-07T17:12:42.683Z,2.02
2019-06-07T17:15:32.892Z,2.12
2019-06-07T17:18:23.458Z,2.20
2019-06-07T17:21:14.605Z,2.42
2019-06-07T17:24:04.469Z,2.58
2019-06-07T17:26:53.904Z,2.35
2019-06-07T17:29:44.135Z,2.87
2019-06-07T17:32:47.577Z,2.90
2019-06-07T17:35:26.767Z,2.65
2019-06-07T17:38:18.131Z,2.70
2019-06-07T17:41:08.880Z,3.45
2019-06-07T17:44:00.357Z,3.12
2019-06-07T17:46:51.718Z,2.75
2019-06-07T17:49:41.783Z,2.42
2019-06-07T17:52:33.764Z,2.65
2019-06-07T17:55:24.381Z,3.22
2019-06-07T17:58:14.480Z,2.95
2019-06-07T18:01:04.456Z,2.87
2019-06-07T18:03:54.971Z,3.27
2019-06-07T18:06:47.346Z,3.55
2019-06-07T18:09:38.324Z,3.08
2019-06-07T18:12:38.896Z,3.85
2019-06-07T18:15:39.615Z,3.20
2019-06-07T18:18:29.899Z,2.72
2019-06-07T18:21:19.961Z,3.40
2019-06-07T18:24:09.582Z,3.35
2019-06-07T18:27:01.924Z,3.55
2019-06-07T18:29:52.742Z,3.47
2019-06-07T18:32:42.683Z,3.50
2019-06-07T18:35:33.233Z,3.08
2019-06-07T18:38:23.450Z,3.10
2019-06-07T18:41:14.350Z,3.25
2019-06-07T18:44:20.767Z,3.37
2019-06-07T18:46:59.679Z,3.20
2019-06-07T18:49:51.419Z,2.87
2019-06-07T18:52:43.656Z,3.20
2019-06-07T18:55:33.685Z,2.80
2019-06-07T18:58:24.088Z,3.58
2019-06-07T19:01:14.706Z,9.65
2019-06-07T19:04:04.914Z,11.53
2019-06-07T19:06:56.387Z,11.85
2019-06-07T19:09:48.512Z,5.03
2019-06-07T19:12:38.966Z,4.37
2019-06-07T19:15:29.395Z,3.95
2019-06-07T19:18:19.305Z,2.90
2019-06-07T19:21:08.737Z,3.62
2019-06-07T19:23:58.560Z,3.60
2019-06-07T19:26:48.455Z,4.03
2019-06-07T19:29:38.640Z,3.27
2019-06-07T19:32:28.837Z,3.27
2019-06-07T19:35:19.229Z,2.80
2019-06-07T19:38:10.009Z,3.10
2019-06-07T19:41:16.534Z,4.20
2019-06-07T19:43:52.122Z,3.47
2019-06-07T19:46:43.105Z,3.40
2019-06-07T19:49:33.949Z,3.10
2019-06-07T19:52:24.721Z,3.25
2019-06-07T19:55:16.270Z,3.55
2019-06-07T19:58:06.502Z,3.87
2019-06-07T20:00:57.563Z,4.50
2019-06-07T20:03:49.661Z,4.77
2019-06-07T20:06:39.764Z,3.60
2019-06-07T20:09:31.282Z,3.17
2019-06-07T20:12:21.670Z,3.73
2019-06-07T20:15:28.554Z,4.67
2019-06-07T20:18:05.581Z,5.30
2019-06-07T20:20:58.599Z,4.90
2019-06-07T20:23:49.660Z,5.50
2019-06-07T20:26:40.309Z,6.53
2019-06-07T20:29:36.030Z,4.20
2019-06-07T20:32:26.522Z,3.87
2019-06-07T20:35:18.325Z,5.17
2019-06-07T20:38:09.724Z,5.30
2019-06-07T20:41:01.265Z,5.30
2019-06-07T20:43:52.893Z,5.97
2019-06-07T20:46:43.634Z,5.17
2019-06-07T20:49:33.849Z,3.80
2019-06-07T20:52:24.799Z,3.80
2019-06-07T20:55:15.920Z,3.40
2019-06-07T20:58:09.513Z,3.67
2019-06-07T21:00:59.109Z,3.13
2019-06-07T21:03:49.525Z,3.43
2019-06-07T21:06:42.247Z,3.33
2019-06-07T21:09:37.297Z,3.43
2019-06-07T21:12:29.816Z,3.00
2019-06-07T21:15:23.885Z,3.00
2019-06-07T21:18:20.054Z,4.27
2019-06-07T21:21:10.646Z,3.97
2019-06-07T21:24:05.186Z,3.70
2019-06-07T21:26:55.138Z,3.00
2019-06-07T21:29:45.180Z,3.23
2019-06-07T21:32:35.294Z,3.47
2019-06-07T21:35:25.840Z,3.80
2019-06-07T21:38:16.536Z,3.07
2019-06-07T21:41:08.143Z,3.43
2019-06-07T21:43:58.805Z,3.33
2019-06-07T21:46:49.511Z,3.73
2019-06-07T21:49:39.575Z,4.10
2019-06-07T21:52:30.100Z,3.27
2019-06-07T21:55:21.988Z,3.33
2019-06-07T21:58:13.591Z,3.40
2019-06-07T22:01:28.539Z,3.77
2019-06-07T22:04:19.280Z,3.70
2019-06-07T22:07:09.566Z,3.40
2019-06-07T22:09:59.911Z,3.20
2019-06-07T22:12:50.485Z,3.27
2019-06-07T22:15:40.195Z,3.50
2019-06-07T22:18:30.676Z,4.10
2019-06-07T22:21:20.039Z,3.70
2019-06-07T22:24:10.994Z,3.43
2019-06-07T22:27:01.251Z,2.77
2019-06-07T22:29:51.438Z,3.40
2019-06-07T22:32:42.783Z,3.27
2019-06-07T22:35:32.461Z,3.37
2019-06-07T22:38:22.895Z,4.13
2019-06-07T22:41:13.999Z,3.57
2019-06-07T22:44:03.956Z,4.13
2019-06-07T22:46:54.160Z,2.80
2019-06-07T22:49:44.302Z,3.67
2019-06-07T22:52:34.645Z,4.03
2019-06-07T22:55:24.320Z,4.03
2019-06-07T22:58:15.971Z,3.90
2019-06-07T23:01:08.244Z,3.50
2019-06-07T23:03:59.208Z,4.03
2019-06-07T23:06:49.683Z,5.03
2019-06-07T23:09:39.283Z,4.20
2019-06-07T23:12:30.160Z,4.10
2019-06-07T23:15:20.817Z,4.17
2019-06-07T23:18:11.390Z,4.63
2019-06-07T23:21:01.571Z,4.47
2019-06-07T23:23:52.219Z,4.17
2019-06-07T23:26:42.721Z,4.70
2019-06-07T23:29:32.883Z,4.50
2019-06-07T23:32:23.763Z,5.13
2019-06-07T23:35:14.876Z,4.77
2019-06-07T23:38:06.160Z,4.67
2019-06-07T23:40:57.631Z,4.70
2019-06-07T23:43:48.915Z,5.10
2019-06-07T23:46:39.114Z,5.73
2019-06-07T23:49:30.730Z,4.80
2019-06-07T23:52:22.065Z,6.40
2019-06-07T23:55:13.884Z,4.83
2019-06-07T23:58:04.975Z,5.83
